createdAt,value
2018-07-09T17:04:24.372Z,4.7
2018-07-09T17:04:40.792Z,4.3
2018-07-09T17:04:57.239Z,3.9
2018-07-09T17:05:13.667Z,4.3
2018-07-09T17:05:30.091Z,4.3
2018-07-09T17:05:46.514Z,3.5
2018-07-09T17:06:02.937Z,3.2
2018-07-09T17:06:19.363Z,3.4
2018-07-09T17:06:35.789Z,5
2018-07-09T17:06:52.217Z,4.7
2018-07-09T17:07:08.642Z,3.8
2018-07-09T17:07:25.069Z,3.9
2018-07-09T17:07:41.495Z,4.8
2018-07-09T17:07:57.924Z,5.2
2018-07-09T17:08:14.370Z,3.9
2018-07-09T17:08:30.794Z,3.8
2018-07-09T17:08:47.231Z,3.8
2018-07-09T17:09:03.667Z,4.5
2018-07-09T17:09:20.114Z,4.6
2018-07-09T17:09:36.604Z,4.5
2018-07-09T17:09:52.962Z,5.2
2018-07-09T17:10:09.385Z,5.1
2018-07-09T17:10:25.827Z,5.4
2018-07-09T17:10:42.260Z,5.1
2018-07-09T17:10:58.692Z,3.6
2018-07-09T17:11:15.133Z,4
2018-07-09T17:11:31.559Z,4.7
2018-07-09T17:11:47.987Z,4.3
2018-07-09T17:12:04.409Z,3.2
2018-07-09T17:12:21.891Z,4.2
2018-07-09T17:12:38.316Z,3.6
2018-07-09T17:12:54.741Z,3.4
2018-07-09T17:13:11.155Z,3.7
2018-07-09T17:13:27.577Z,3.4
2018-07-09T17:13:44.000Z,4
2018-07-09T17:14:00.442Z,4.6
2018-07-09T17:14:16.868Z,5.7
2018-07-09T17:14:33.313Z,6.1
2018-07-09T17:14:49.728Z,4.5
2018-07-09T17:15:06.161Z,4.7
2018-07-09T17:15:22.591Z,5.7
2018-07-09T17:15:39.022Z,4.6
2018-07-09T17:15:55.450Z,4.8
2018-07-09T17:16:11.894Z,4.4
2018-07-09T17:16:28.317Z,3.5
2018-07-09T17:16:44.743Z,3.8
2018-07-09T17:17:01.166Z,4.7
2018-07-09T17:17:17.588Z,5.7
2018-07-09T17:17:34.014Z,5.4
2018-07-09T17:17:50.444Z,5.9
2018-07-09T17:18:06.881Z,5.4
2018-07-09T17:18:23.297Z,5.9
2018-07-09T17:18:39.722Z,8.8
2018-07-09T17:18:56.151Z,8.1
2018-07-09T17:19:12.609Z,5.3
2018-07-09T17:19:29.042Z,3.1
2018-07-09T17:19:45.484Z,3.7
2018-07-09T17:20:01.907Z,3.9
2018-07-09T17:20:18.331Z,4.9
2018-07-09T17:20:34.778Z,3.3
2018-07-09T17:20:51.205Z,4.2
2018-07-09T17:21:07.631Z,4.7
2018-07-09T17:21:24.058Z,4.7
2018-07-09T17:21:40.480Z,6.1
2018-07-09T17:21:56.906Z,4.6
2018-07-09T17:22:13.334Z,4.8
2018-07-09T17:22:29.756Z,4.2
2018-07-09T17:22:46.180Z,4.3
2018-07-09T17:23:02.606Z,4.2
2018-07-09T17:23:19.032Z,4.7
2018-07-09T17:23:35.624Z,4.3
2018-07-09T17:23:52.060Z,3.7
2018-07-09T17:24:08.489Z,4.3
2018-07-09T17:24:24.919Z,5.7
2018-07-09T17:24:41.363Z,5.1
2018-07-09T17:24:57.798Z,5.2
2018-07-09T17:25:14.219Z,6.8
2018-07-09T17:25:30.645Z,7
2018-07-09T17:25:47.073Z,4.6
2018-07-09T17:26:03.501Z,4.1
2018-07-09T17:26:19.980Z,4.7
2018-07-09T17:26:36.536Z,4.7
2018-07-09T17:26:53.111Z,4.6
2018-07-09T17:27:09.427Z,2.8
2018-07-09T17:27:25.799Z,3.7
2018-07-09T17:27:42.180Z,4.2
2018-07-09T17:27:58.631Z,4.5
2018-07-09T17:28:15.072Z,4.3
2018-07-09T17:28:31.557Z,3.8
2018-07-09T17:28:47.999Z,4.6
2018-07-09T17:29:04.528Z,4.4
2018-07-09T17:29:21.021Z,3.6
2018-07-09T17:29:37.474Z,4.1
2018-07-09T17:29:53.896Z,4.2
2018-07-09T17:30:10.328Z,5
2018-07-09T17:30:27.755Z,5.3
2018-07-09T17:30:44.201Z,5.9
2018-07-09T17:31:00.630Z,5.8
2018-07-09T17:31:17.078Z,4.5
2018-07-09T17:31:33.508Z,5.4
2018-07-09T17:31:49.937Z,5.6
2018-07-09T17:32:06.452Z,4.9
2018-07-09T17:32:22.854Z,4.9
2018-07-09T17:32:39.250Z,4.5
2018-07-09T17:32:55.669Z,4.2
2018-07-09T17:33:12.095Z,4.5
2018-07-09T17:33:28.531Z,3.5
2018-07-09T17:33:44.959Z,6
2018-07-09T17:34:01.388Z,8.3
2018-07-09T17:34:17.818Z,5.9
2018-07-09T17:34:34.242Z,4.3
2018-07-09T17:34:50.709Z,5.8
2018-07-09T17:35:07.138Z,5.8
2018-07-09T17:35:23.564Z,4.5
2018-07-09T17:35:39.990Z,4.8
2018-07-09T17:35:56.422Z,5
2018-07-09T17:36:12.850Z,4.4
2018-07-09T17:36:29.278Z,4.3
2018-07-09T17:36:45.701Z,4.1
2018-07-09T17:37:02.138Z,4.3
2018-07-09T17:37:18.573Z,5.4
2018-07-09T17:37:35.047Z,4
2018-07-09T17:37:51.423Z,3.2
2018-07-09T17:38:07.850Z,5.7
2018-07-09T17:38:24.285Z,6.6
2018-07-09T17:38:40.738Z,3.6
2018-07-09T17:38:57.149Z,3.6
2018-07-09T17:39:13.562Z,3.8
2018-07-09T17:39:29.990Z,4.4
2018-07-09T17:39:46.434Z,4.6
2018-07-09T17:40:02.862Z,4.6
2018-07-09T17:40:19.288Z,6
2018-07-09T17:40:35.716Z,7.6
2018-07-09T17:40:52.182Z,7.2
2018-07-09T17:41:08.609Z,6
2018-07-09T17:41:25.039Z,7.3
2018-07-09T17:41:41.471Z,6.5
2018-07-09T17:41:57.900Z,4.1
2018-07-09T17:42:14.340Z,4.1
2018-07-09T17:42:30.770Z,4.2
2018-07-09T17:42:47.204Z,5.2
2018-07-09T17:43:03.635Z,4.2
2018-07-09T17:43:20.068Z,4.5
2018-07-09T17:43:36.524Z,3.9
2018-07-09T17:43:52.946Z,3.3
2018-07-09T17:44:09.346Z,4.7
2018-07-09T17:44:25.773Z,5.9
2018-07-09T17:44:42.206Z,5
2018-07-09T17:44:58.645Z,4.9
2018-07-09T17:45:15.076Z,5.7
2018-07-09T17:45:31.503Z,6.6
2018-07-09T17:45:47.930Z,6.2
2018-07-09T17:46:04.371Z,4.6
2018-07-09T17:46:20.815Z,4.2
2018-07-09T17:46:38.234Z,3.3
2018-07-09T17:46:54.669Z,3.6
2018-07-09T17:47:11.101Z,4.2
2018-07-09T17:47:27.528Z,4.6
2018-07-09T17:47:43.974Z,4.6
2018-07-09T17:48:00.397Z,3.8
2018-07-09T17:48:16.824Z,3.3
2018-07-09T17:48:33.248Z,3.8
2018-07-09T17:48:49.678Z,2.5
2018-07-09T17:49:06.106Z,3.1
2018-07-09T17:49:22.538Z,3.5
2018-07-09T17:49:38.968Z,3.3
2018-07-09T17:49:55.464Z,3
2018-07-09T17:50:11.908Z,3.5
2018-07-09T17:50:28.258Z,4.5
2018-07-09T17:50:44.686Z,4.2
2018-07-09T17:51:01.133Z,3.7
2018-07-09T17:51:17.563Z,2.9
2018-07-09T17:51:33.991Z,3.2
2018-07-09T17:51:50.423Z,3.8
2018-07-09T17:52:06.847Z,4.1
2018-07-09T17:52:23.275Z,4.5
2018-07-09T17:52:39.701Z,4
2018-07-09T17:52:56.128Z,3.6
2018-07-09T17:53:12.553Z,4.3
2018-07-09T17:53:28.982Z,5.3
2018-07-09T17:53:45.409Z,4.5
2018-07-09T17:54:01.837Z,4.1
2018-07-09T17:54:18.260Z,4.8
2018-07-09T17:54:35.678Z,4.7
2018-07-09T17:54:52.115Z,4
2018-07-09T17:55:08.562Z,3.9
2018-07-09T17:55:24.982Z,3.7
2018-07-09T17:55:41.406Z,4.2
2018-07-09T17:55:57.840Z,3.9
2018-07-09T17:56:14.273Z,4.1
2018-07-09T17:56:30.696Z,4.7
2018-07-09T17:56:47.125Z,3.5
2018-07-09T17:57:03.566Z,2.8
2018-07-09T17:57:19.995Z,3.5
2018-07-09T17:57:36.427Z,4.3
2018-07-09T17:57:52.854Z,4.6
2018-07-09T17:58:09.279Z,3.6
2018-07-09T17:58:25.710Z,3.3
2018-07-09T17:58:42.153Z,2.9
2018-07-09T17:58:58.580Z,2.8
2018-07-09T17:59:15.011Z,3.4
2018-07-09T17:59:31.440Z,3.9
2018-07-09T17:59:47.871Z,3.9
2018-07-09T18:00:04.316Z,3.2
2018-07-09T18:00:20.745Z,2.4
2018-07-09T18:00:37.164Z,3
2018-07-09T18:00:53.590Z,3
2018-07-09T18:01:11.011Z,2.2
2018-07-09T18:01:27.440Z,2.1
2018-07-09T18:01:43.864Z,2.9
2018-07-09T18:02:00.293Z,2.8
2018-07-09T18:02:16.720Z,2.5
2018-07-09T18:02:33.154Z,3.2
2018-07-09T18:02:49.575Z,3.2
2018-07-09T18:03:06.002Z,3.1
2018-07-09T18:03:22.428Z,2.4
2018-07-09T18:03:38.858Z,3.6
2018-07-09T18:03:55.285Z,4.1
2018-07-09T18:04:11.716Z,3.5
2018-07-09T18:04:28.145Z,3.2
2018-07-09T18:04:44.571Z,3
2018-07-09T18:05:00.999Z,3.5
2018-07-09T18:05:17.443Z,2.8
2018-07-09T18:05:34.864Z,3.7
2018-07-09T18:05:51.295Z,4.3
2018-07-09T18:06:07.726Z,2.7
2018-07-09T18:06:24.154Z,2.2
2018-07-09T18:06:40.578Z,3.4
2018-07-09T18:06:57.006Z,4.5
2018-07-09T18:07:13.444Z,4.9
2018-07-09T18:07:29.868Z,5.3
2018-07-09T18:07:46.292Z,5.5
2018-07-09T18:08:02.723Z,3.5
2018-07-09T18:08:19.143Z,3.9
2018-07-09T18:08:35.572Z,4.5
2018-07-09T18:08:52.003Z,2.9
2018-07-09T18:09:08.426Z,3.5
2018-07-09T18:09:24.858Z,3.5
2018-07-09T18:09:41.283Z,2.3
2018-07-09T18:09:57.717Z,3.3
2018-07-09T18:10:14.168Z,2.6
2018-07-09T18:10:30.640Z,2.8
2018-07-09T18:10:47.021Z,3.2
2018-07-09T18:11:03.447Z,4.2
2018-07-09T18:11:19.875Z,5.1
2018-07-09T18:11:36.301Z,5.9
2018-07-09T18:11:52.730Z,4.8
2018-07-09T18:12:09.150Z,3.5
2018-07-09T18:12:25.582Z,3.9
2018-07-09T18:12:42.006Z,3.3
2018-07-09T18:12:58.431Z,2.8
2018-07-09T18:13:14.863Z,5.2
2018-07-09T18:13:31.341Z,9.1
2018-07-09T18:13:47.723Z,7.2
2018-07-09T18:14:04.175Z,3.6
2018-07-09T18:14:20.581Z,2.9
2018-07-09T18:14:37.002Z,3.3
2018-07-09T18:14:53.449Z,3.2
2018-07-09T18:15:09.856Z,3.1
2018-07-09T18:15:26.297Z,2.9
2018-07-09T18:15:42.760Z,3.1
2018-07-09T18:15:59.153Z,2.6
2018-07-09T18:16:15.581Z,3.1
2018-07-09T18:16:32.005Z,3.5
2018-07-09T18:16:48.429Z,2.9
2018-07-09T18:17:04.856Z,3.4
2018-07-09T18:17:21.282Z,3.9
2018-07-09T18:17:37.710Z,2.8
2018-07-09T18:17:54.135Z,3.7
2018-07-09T18:18:10.561Z,3.3
2018-07-09T18:18:26.986Z,2.3
2018-07-09T18:18:43.414Z,3.1
2018-07-09T18:18:59.893Z,3
2018-07-09T18:19:16.267Z,2.7
2018-07-09T18:19:32.698Z,3.1
2018-07-09T18:19:49.125Z,3.6
2018-07-09T18:20:05.548Z,2.8
2018-07-09T18:20:21.988Z,2.9
2018-07-09T18:20:38.415Z,4.3
2018-07-09T18:20:54.845Z,4.4
2018-07-09T18:21:11.269Z,3.8
2018-07-09T18:21:27.762Z,3.8
2018-07-09T18:21:44.112Z,2.9
2018-07-09T18:22:00.544Z,2.9
2018-07-09T18:22:16.971Z,4.9
2018-07-09T18:22:33.395Z,5.5
2018-07-09T18:22:49.825Z,5.3
2018-07-09T18:23:07.269Z,3.7
2018-07-09T18:23:23.695Z,2.9
2018-07-09T18:23:40.125Z,3.7
2018-07-09T18:23:56.555Z,3.3
2018-07-09T18:24:12.979Z,2.7
2018-07-09T18:24:29.410Z,4.9
2018-07-09T18:24:45.838Z,5.2
2018-07-09T18:25:02.293Z,5.7
2018-07-09T18:25:18.762Z,6.1
2018-07-09T18:25:35.200Z,5.3
2018-07-09T18:25:51.611Z,4
2018-07-09T18:26:08.038Z,4.2
2018-07-09T18:26:25.466Z,5.7
2018-07-09T18:26:41.895Z,5.1
2018-07-09T18:26:58.331Z,4
2018-07-09T18:27:14.759Z,3.7
2018-07-09T18:27:31.187Z,3
2018-07-09T18:27:47.645Z,4.1
2018-07-09T18:28:04.073Z,3.7
2018-07-09T18:28:20.501Z,3.6
2018-07-09T18:28:36.948Z,5
2018-07-09T18:28:53.371Z,4.8
2018-07-09T18:29:09.803Z,3.6
2018-07-09T18:29:26.226Z,2.5
2018-07-09T18:29:42.659Z,3.6
2018-07-09T18:29:59.099Z,4.4
2018-07-09T18:30:15.555Z,2.9
2018-07-09T18:30:32.088Z,2.8
2018-07-09T18:30:48.537Z,3.2
2018-07-09T18:31:04.974Z,4.1
2018-07-09T18:31:21.410Z,2
2018-07-09T18:31:37.843Z,3.1
2018-07-09T18:31:54.273Z,3.3
2018-07-09T18:32:10.709Z,2.2
2018-07-09T18:32:27.142Z,4.4
2018-07-09T18:32:43.568Z,4.2
2018-07-09T18:33:00.000Z,2.1
2018-07-09T18:33:16.421Z,3.3
2018-07-09T18:33:32.852Z,2.9
2018-07-09T18:33:49.302Z,3.3
2018-07-09T18:34:05.727Z,3.7
2018-07-09T18:34:22.160Z,3
2018-07-09T18:34:38.591Z,2.8
2018-07-09T18:34:55.027Z,2.8
2018-07-09T18:35:11.474Z,2.6
2018-07-09T18:35:28.177Z,2.3
2018-07-09T18:35:44.579Z,3.2
2018-07-09T18:36:01.011Z,3.6
2018-07-09T18:36:17.441Z,3.5
2018-07-09T18:36:33.868Z,2.5
2018-07-09T18:36:50.302Z,3.7
2018-07-09T18:37:06.725Z,3.4
2018-07-09T18:37:23.154Z,2.6
2018-07-09T18:37:39.582Z,2.7
2018-07-09T18:37:56.010Z,2.5
2018-07-09T18:38:12.442Z,2.4
2018-07-09T18:38:28.913Z,2.1
2018-07-09T18:38:45.393Z,2.3
2018-07-09T18:39:01.753Z,2.8
2018-07-09T18:39:18.183Z,3.2
2018-07-09T18:39:34.607Z,3.3
2018-07-09T18:39:51.037Z,6.4
2018-07-09T18:40:07.483Z,6.2
2018-07-09T18:40:23.940Z,3.1
2018-07-09T18:40:40.374Z,3.5
2018-07-09T18:40:56.799Z,3.4
2018-07-09T18:41:13.227Z,3.8
2018-07-09T18:41:29.655Z,4.4
2018-07-09T18:41:46.085Z,5.3
2018-07-09T18:42:02.513Z,4
2018-07-09T18:42:18.936Z,3.6
2018-07-09T18:42:35.366Z,4
2018-07-09T18:42:51.794Z,3.8
2018-07-09T18:43:08.224Z,3.9
2018-07-09T18:43:24.650Z,4.3
2018-07-09T18:43:41.077Z,3
2018-07-09T18:43:57.503Z,3
2018-07-09T18:44:13.926Z,2.8
2018-07-09T18:44:30.369Z,2.8
2018-07-09T18:44:47.793Z,3.8
2018-07-09T18:45:04.228Z,3.3
2018-07-09T18:45:20.660Z,3.2
2018-07-09T18:45:37.111Z,2.5
2018-07-09T18:45:53.538Z,2.5
2018-07-09T18:46:09.968Z,2.8
2018-07-09T18:46:26.401Z,2.3
2018-07-09T18:46:42.830Z,2.7
2018-07-09T18:46:59.270Z,2.3
2018-07-09T18:47:15.691Z,3.1
2018-07-09T18:47:32.120Z,3.1
2018-07-09T18:47:48.550Z,3
2018-07-09T18:48:05.011Z,2.6
2018-07-09T18:48:21.505Z,2.4
2018-07-09T18:48:37.934Z,2.7
2018-07-09T18:48:54.293Z,3.7
2018-07-09T18:49:10.728Z,3.1
2018-07-09T18:49:27.158Z,2.4
2018-07-09T18:49:43.587Z,3.6
2018-07-09T18:50:00.014Z,3.3
2018-07-09T18:50:16.443Z,2.2
2018-07-09T18:50:32.894Z,2.7
2018-07-09T18:50:49.320Z,3
2018-07-09T18:51:05.734Z,2.8
2018-07-09T18:51:22.160Z,2.5
2018-07-09T18:51:38.592Z,3.2
2018-07-09T18:51:55.014Z,2.9
2018-07-09T18:52:11.444Z,4.1
2018-07-09T18:52:27.871Z,4.4
2018-07-09T18:52:44.297Z,2.9
2018-07-09T18:53:00.760Z,3.6
2018-07-09T18:53:17.188Z,3.9
2018-07-09T18:53:33.613Z,3.8
2018-07-09T18:53:50.041Z,3
2018-07-09T18:54:06.470Z,2.4
2018-07-09T18:54:23.901Z,3.8
2018-07-09T18:54:40.345Z,3.5
2018-07-09T18:54:56.772Z,3.9
2018-07-09T18:55:13.194Z,4
2018-07-09T18:55:29.626Z,3.6
2018-07-09T18:55:46.077Z,4
2018-07-09T18:56:02.518Z,3.7
2018-07-09T18:56:18.961Z,2.7
2018-07-09T18:56:35.391Z,2.6
2018-07-09T18:56:51.869Z,2.9
2018-07-09T18:57:08.246Z,3
2018-07-09T18:57:24.674Z,3.3
2018-07-09T18:57:41.105Z,2.9
2018-07-09T18:57:57.538Z,2.7
2018-07-09T18:58:13.981Z,2.4
2018-07-09T18:58:30.554Z,2.2
2018-07-09T18:58:46.832Z,3.3
2018-07-09T18:59:03.275Z,5.1
2018-07-09T18:59:19.710Z,4
2018-07-09T18:59:36.174Z,3.6
2018-07-09T18:59:52.614Z,3.1
2018-07-09T19:00:09.041Z,2.9
2018-07-09T19:00:25.466Z,3.5
2018-07-09T19:00:42.913Z,4.2
2018-07-09T19:00:59.340Z,2.9
2018-07-09T19:01:15.769Z,2.7
2018-07-09T19:01:32.205Z,4.7
2018-07-09T19:01:48.636Z,4.6
2018-07-09T19:02:05.083Z,3.6
2018-07-09T19:02:21.495Z,2.1
2018-07-09T19:02:37.932Z,2.7
2018-07-09T19:02:54.355Z,3.5
2018-07-09T19:03:10.792Z,4.4
2018-07-09T19:03:27.233Z,5.4
2018-07-09T19:03:43.789Z,5
2018-07-09T19:04:00.192Z,3
2018-07-09T19:04:16.621Z,4.3
2018-07-09T19:04:33.046Z,4.5
2018-07-09T19:04:49.472Z,4.8
2018-07-09T19:05:05.901Z,7.3
2018-07-09T19:05:22.331Z,5.9
2018-07-09T19:05:38.762Z,4.9
2018-07-09T19:05:55.229Z,3.1
2018-07-09T19:06:11.657Z,3.8
2018-07-09T19:06:28.087Z,5.7
2018-07-09T19:06:44.543Z,5.2
2018-07-09T19:07:00.967Z,3.7
2018-07-09T19:07:17.395Z,3.1
2018-07-09T19:07:33.822Z,2.1
2018-07-09T19:07:50.250Z,4.4
2018-07-09T19:08:06.667Z,3.4
2018-07-09T19:08:23.097Z,4.6
2018-07-09T19:08:39.525Z,5.2
2018-07-09T19:08:55.952Z,4.1
2018-07-09T19:09:12.385Z,3.7
2018-07-09T19:09:28.812Z,2.3
2018-07-09T19:09:45.239Z,2.4
2018-07-09T19:10:01.728Z,3.7
2018-07-09T19:10:18.187Z,4
2018-07-09T19:10:34.557Z,3.2
2018-07-09T19:10:51.020Z,2
2018-07-09T19:11:07.446Z,4.1
2018-07-09T19:11:23.877Z,4.4
2018-07-09T19:11:40.302Z,2.8
2018-07-09T19:11:56.732Z,3.6
2018-07-09T19:12:13.173Z,3.2
2018-07-09T19:12:29.607Z,4.1
2018-07-09T19:12:46.040Z,5.6
2018-07-09T19:13:02.652Z,4.7
2018-07-09T19:13:19.093Z,4
2018-07-09T19:13:35.523Z,4.5
2018-07-09T19:13:51.950Z,3.1
2018-07-09T19:14:08.378Z,2.2
2018-07-09T19:14:25.806Z,3.2
2018-07-09T19:14:42.228Z,3.8
2018-07-09T19:14:58.654Z,1.9
2018-07-09T19:15:15.099Z,2.4
2018-07-09T19:15:31.542Z,2.7
2018-07-09T19:15:48.032Z,1.5
2018-07-09T19:16:04.483Z,3.1
2018-07-09T19:16:21.016Z,3.9
2018-07-09T19:16:37.458Z,3.8
2018-07-09T19:16:53.898Z,3
2018-07-09T19:17:10.341Z,2.4
2018-07-09T19:17:26.774Z,1.8
2018-07-09T19:17:43.214Z,1.7
2018-07-09T19:17:59.637Z,3.7
2018-07-09T19:18:16.310Z,3.9
2018-07-09T19:18:32.738Z,2.3
2018-07-09T19:18:49.167Z,1.9
2018-07-09T19:19:05.593Z,1.6
2018-07-09T19:19:22.044Z,2.9
2018-07-09T19:19:38.474Z,2.8
2018-07-09T19:19:54.912Z,3.4
2018-07-09T19:20:11.344Z,3.3
2018-07-09T19:20:27.772Z,3.6
2018-07-09T19:20:44.204Z,4.3
2018-07-09T19:21:00.667Z,3.3
2018-07-09T19:21:17.142Z,3
2018-07-09T19:21:33.526Z,2.9
2018-07-09T19:21:49.967Z,3.2
2018-07-09T19:22:06.426Z,2.7
2018-07-09T19:22:22.854Z,3
2018-07-09T19:22:39.280Z,2.8
2018-07-09T19:22:55.711Z,2.2
2018-07-09T19:23:12.135Z,2.2
2018-07-09T19:23:28.560Z,2.4
2018-07-09T19:23:44.988Z,2.5
2018-07-09T19:24:01.462Z,2.8
2018-07-09T19:24:17.855Z,3.2
2018-07-09T19:24:34.286Z,2.6
2018-07-09T19:24:50.719Z,2.6
2018-07-09T19:25:07.144Z,3
2018-07-09T19:25:23.576Z,3.6
2018-07-09T19:25:40.002Z,4.5
2018-07-09T19:25:56.426Z,2.8
2018-07-09T19:26:12.868Z,2.6
2018-07-09T19:26:29.295Z,2.9
2018-07-09T19:26:45.737Z,3.3
2018-07-09T19:27:02.159Z,3.2
2018-07-09T19:27:18.589Z,2.8
2018-07-09T19:27:35.018Z,2.6
2018-07-09T19:27:52.447Z,2.2
2018-07-09T19:28:08.895Z,3.4
2018-07-09T19:28:25.295Z,2.9
2018-07-09T19:28:41.725Z,2
2018-07-09T19:28:58.160Z,2.7
2018-07-09T19:29:14.595Z,2.8
2018-07-09T19:29:31.031Z,3.1
2018-07-09T19:29:47.498Z,2.4
2018-07-09T19:30:03.950Z,1.9
2018-07-09T19:30:20.385Z,1.7
2018-07-09T19:30:36.818Z,3
2018-07-09T19:30:53.251Z,3.8
2018-07-09T19:31:09.717Z,3.2
2018-07-09T19:31:26.147Z,3.5
2018-07-09T19:31:42.571Z,2.8
2018-07-09T19:31:59.015Z,3.2
2018-07-09T19:32:15.443Z,4
2018-07-09T19:32:31.878Z,3.6
2018-07-09T19:32:48.314Z,3.3
2018-07-09T19:33:04.742Z,2.8
2018-07-09T19:33:21.190Z,2.6
2018-07-09T19:33:37.633Z,4
2018-07-09T19:33:54.063Z,4.1
2018-07-09T19:34:10.562Z,3.8
2018-07-09T19:34:26.915Z,3.9
2018-07-09T19:34:43.369Z,3.4
2018-07-09T19:34:59.799Z,3.5
2018-07-09T19:35:16.236Z,2.7
2018-07-09T19:35:32.686Z,2.2
2018-07-09T19:35:49.112Z,3.5
2018-07-09T19:36:05.544Z,3.7
2018-07-09T19:36:22.066Z,3.2
2018-07-09T19:36:38.549Z,3.4
2018-07-09T19:36:54.997Z,3.3
2018-07-09T19:37:11.524Z,3.3
2018-07-09T19:37:28.059Z,3.1
2018-07-09T19:37:44.678Z,3.1
2018-07-09T19:38:00.895Z,3.9
2018-07-09T19:38:17.040Z,3.7
2018-07-09T19:38:33.466Z,3.3
2018-07-09T19:38:49.890Z,3.7
2018-07-09T19:39:06.319Z,2.7
2018-07-09T19:39:22.755Z,2.5
2018-07-09T19:39:39.187Z,2.8
2018-07-09T19:39:55.610Z,2.6
2018-07-09T19:40:12.039Z,3.9
2018-07-09T19:40:28.465Z,4
2018-07-09T19:40:44.893Z,4.1
2018-07-09T19:41:01.321Z,3.8
2018-07-09T19:41:17.772Z,3.8
2018-07-09T19:41:34.220Z,3.3
2018-07-09T19:41:50.629Z,2.5
2018-07-09T19:42:07.064Z,3.3
2018-07-09T19:42:23.500Z,3.1
2018-07-09T19:42:39.927Z,2.6
2018-07-09T19:42:56.355Z,2.4
2018-07-09T19:43:12.783Z,2.4
2018-07-09T19:43:29.231Z,2.7
2018-07-09T19:43:45.700Z,3.6
2018-07-09T19:44:02.136Z,4.9
2018-07-09T19:44:18.568Z,4.3
2018-07-09T19:44:34.996Z,3.7
2018-07-09T19:44:51.438Z,3.8
2018-07-09T19:45:07.880Z,4.9
2018-07-09T19:45:24.311Z,4.3
2018-07-09T19:45:40.779Z,4
2018-07-09T19:45:57.217Z,3.9
2018-07-09T19:46:13.603Z,4.2
2018-07-09T19:46:30.046Z,3.6
2018-07-09T19:46:46.472Z,4.1
2018-07-09T19:47:02.900Z,3.8
2018-07-09T19:47:19.343Z,2.6
2018-07-09T19:47:35.766Z,2.8
2018-07-09T19:47:52.258Z,3.3
2018-07-09T19:48:08.620Z,2.8
2018-07-09T19:48:25.050Z,2.5
2018-07-09T19:48:41.484Z,3.2
2018-07-09T19:48:57.924Z,3.2
2018-07-09T19:49:14.378Z,2.9
2018-07-09T19:49:30.805Z,3.2
2018-07-09T19:49:47.239Z,3.5
2018-07-09T19:50:03.667Z,2.7
2018-07-09T19:50:20.117Z,3.6
2018-07-09T19:50:36.544Z,5.4
2018-07-09T19:50:52.975Z,3.7
2018-07-09T19:51:09.420Z,3.8
2018-07-09T19:51:25.874Z,3.9
2018-07-09T19:51:42.301Z,4.8
2018-07-09T19:51:58.744Z,4.1
2018-07-09T19:52:15.164Z,3
2018-07-09T19:52:31.592Z,2.2
2018-07-09T19:52:48.055Z,3.1
2018-07-09T19:53:04.517Z,2.8
2018-07-09T19:53:20.950Z,2.3
2018-07-09T19:53:37.379Z,2.7
2018-07-09T19:53:53.820Z,3.5
2018-07-09T19:54:10.254Z,3.8
2018-07-09T19:54:26.683Z,3.6
2018-07-09T19:54:43.125Z,3.9
2018-07-09T19:54:59.549Z,3.4
2018-07-09T19:55:15.999Z,2.6
2018-07-09T19:55:32.410Z,2.6
2018-07-09T19:55:48.848Z,3
2018-07-09T19:56:05.271Z,3.5
2018-07-09T19:56:21.732Z,3.3
2018-07-09T19:56:38.161Z,3.2
2018-07-09T19:56:54.589Z,4
2018-07-09T19:57:11.021Z,4.6
2018-07-09T19:57:27.450Z,3.4
2018-07-09T19:57:43.888Z,2
2018-07-09T19:58:00.317Z,3.1
2018-07-09T19:58:16.753Z,2.8
2018-07-09T19:58:33.180Z,2.6
2018-07-09T19:58:49.674Z,2.6
2018-07-09T19:59:06.063Z,2.1
2018-07-09T19:59:22.495Z,2.1
2018-07-09T19:59:38.923Z,2.8
2018-07-09T19:59:55.350Z,3.2
2018-07-09T20:00:11.786Z,2.9
2018-07-09T20:00:28.225Z,2.6
2018-07-09T20:00:44.658Z,3
2018-07-09T20:01:01.085Z,2.7
2018-07-09T20:01:17.515Z,2.9
2018-07-09T20:01:33.971Z,2.4
2018-07-09T20:01:50.405Z,2.3
2018-07-09T20:02:06.835Z,3.4
2018-07-09T20:02:23.262Z,3.4
2018-07-09T20:02:39.692Z,3.2
2018-07-09T20:02:56.128Z,2.6
2018-07-09T20:03:12.562Z,2.1
2018-07-09T20:03:29.117Z,2.4
2018-07-09T20:03:45.409Z,3.4
2018-07-09T20:04:01.845Z,3
2018-07-09T20:04:18.276Z,2
2018-07-09T20:04:34.708Z,2
2018-07-09T20:04:51.137Z,2.8
2018-07-09T20:05:07.655Z,3.4
2018-07-09T20:05:24.001Z,3.1
2018-07-09T20:05:40.426Z,2.5
2018-07-09T20:05:56.856Z,2.5
2018-07-09T20:06:14.279Z,2.5
2018-07-09T20:06:30.721Z,2.6
2018-07-09T20:06:47.153Z,2.2
2018-07-09T20:07:03.580Z,2.4
2018-07-09T20:07:20.022Z,2.8
2018-07-09T20:07:36.454Z,3.2
2018-07-09T20:07:52.886Z,2.9
2018-07-09T20:08:09.323Z,3.1
2018-07-09T20:08:25.754Z,3.9
2018-07-09T20:08:42.237Z,4
2018-07-09T20:08:58.622Z,3
2018-07-09T20:09:15.054Z,2.1
2018-07-09T20:09:31.480Z,2.3
2018-07-09T20:09:47.908Z,3.3
2018-07-09T20:10:04.335Z,2.9
2018-07-09T20:10:20.765Z,3.2
2018-07-09T20:10:37.192Z,4
2018-07-09T20:10:53.626Z,3.7
2018-07-09T20:11:10.085Z,3.3
2018-07-09T20:11:26.518Z,3.7
2018-07-09T20:11:42.945Z,4.1
2018-07-09T20:11:59.386Z,3.8
2018-07-09T20:12:15.820Z,2.7
2018-07-09T20:12:32.248Z,3.2
2018-07-09T20:12:48.678Z,3.9
2018-07-09T20:13:05.109Z,3.8
2018-07-09T20:13:21.565Z,4
2018-07-09T20:13:37.995Z,3.4
2018-07-09T20:13:54.424Z,2.3
2018-07-09T20:14:10.855Z,2.9
2018-07-09T20:14:27.289Z,3.4
2018-07-09T20:14:43.719Z,2.3
2018-07-09T20:15:00.159Z,2.5
2018-07-09T20:15:16.645Z,2.2
2018-07-09T20:15:33.014Z,2.8
2018-07-09T20:15:49.441Z,3.4
2018-07-09T20:16:05.871Z,3.1
2018-07-09T20:16:22.314Z,3.7
2018-07-09T20:16:38.743Z,3.3
2018-07-09T20:16:55.175Z,3.3
2018-07-09T20:17:11.609Z,2.6
2018-07-09T20:17:28.039Z,2.4
2018-07-09T20:17:44.477Z,2.9
2018-07-09T20:18:00.913Z,5.3
2018-07-09T20:18:17.345Z,2.6
2018-07-09T20:18:33.781Z,2.2
2018-07-09T20:18:50.215Z,2.6
2018-07-09T20:19:06.648Z,2.5
2018-07-09T20:19:23.084Z,2.5
2018-07-09T20:19:39.520Z,3
2018-07-09T20:19:55.950Z,3.3
2018-07-09T20:20:12.379Z,2.6
2018-07-09T20:20:28.811Z,2.4
2018-07-09T20:20:45.253Z,2.7
2018-07-09T20:21:01.680Z,3.3
2018-07-09T20:21:18.130Z,4.2
2018-07-09T20:21:34.562Z,3.9
2018-07-09T20:21:50.990Z,3.2
2018-07-09T20:22:07.420Z,4.4
2018-07-09T20:22:23.848Z,5.4
2018-07-09T20:22:40.280Z,3.8
2018-07-09T20:22:56.714Z,2.6
2018-07-09T20:23:13.149Z,3.8
2018-07-09T20:23:29.577Z,5.4
2018-07-09T20:23:46.010Z,7.9
2018-07-09T20:24:02.440Z,7
2018-07-09T20:24:18.885Z,4.2
2018-07-09T20:24:35.310Z,3.9
2018-07-09T20:24:51.740Z,4
2018-07-09T20:25:08.167Z,6.2
2018-07-09T20:25:24.603Z,5.1
2018-07-09T20:25:41.037Z,3.6
2018-07-09T20:25:57.466Z,4.4
2018-07-09T20:26:14.925Z,4.6
2018-07-09T20:26:31.376Z,3.9
2018-07-09T20:26:47.782Z,4.8
2018-07-09T20:27:04.263Z,5
2018-07-09T20:27:20.643Z,3.3
2018-07-09T20:27:37.073Z,3.7
2018-07-09T20:27:53.504Z,3.8
2018-07-09T20:28:09.940Z,3.2
2018-07-09T20:28:26.372Z,3
2018-07-09T20:28:42.800Z,4.2
2018-07-09T20:28:59.233Z,3.6
2018-07-09T20:29:15.658Z,3.6
2018-07-09T20:29:32.089Z,3.6
2018-07-09T20:29:48.517Z,3
2018-07-09T20:30:04.944Z,2.5
2018-07-09T20:30:21.378Z,2.6
2018-07-09T20:30:37.804Z,4
2018-07-09T20:30:54.257Z,3.7
2018-07-09T20:31:10.688Z,4.6
2018-07-09T20:31:27.139Z,4.3
2018-07-09T20:31:43.567Z,2.8
2018-07-09T20:31:59.995Z,2.9
2018-07-09T20:32:16.426Z,3.5
2018-07-09T20:32:32.863Z,3.4
2018-07-09T20:32:49.350Z,3.2
2018-07-09T20:33:05.734Z,2.7
2018-07-09T20:33:22.164Z,2.5
2018-07-09T20:33:38.593Z,2.8
2018-07-09T20:33:55.016Z,2.8
2018-07-09T20:34:11.450Z,2.7
2018-07-09T20:34:27.882Z,2.7
2018-07-09T20:34:45.302Z,3.5
2018-07-09T20:35:01.737Z,2.8
2018-07-09T20:35:18.157Z,2.7
2018-07-09T20:35:34.585Z,3.2
2018-07-09T20:35:51.016Z,2.7
2018-07-09T20:36:07.460Z,3.1
2018-07-09T20:36:23.902Z,3.7
2018-07-09T20:36:40.332Z,4
2018-07-09T20:36:56.758Z,3.7
2018-07-09T20:37:14.180Z,3.3
2018-07-09T20:37:30.616Z,3.2
2018-07-09T20:37:47.045Z,2.8
2018-07-09T20:38:03.474Z,3.5
2018-07-09T20:38:19.901Z,4
2018-07-09T20:38:37.323Z,3.4
2018-07-09T20:38:53.754Z,4.2
2018-07-09T20:39:10.180Z,4
2018-07-09T20:39:26.614Z,2.9
2018-07-09T20:39:43.047Z,3.1
2018-07-09T20:39:59.499Z,3
2018-07-09T20:40:15.902Z,3.2
2018-07-09T20:40:32.330Z,3.7
2018-07-09T20:40:48.762Z,3.5
2018-07-09T20:41:05.208Z,3.3
2018-07-09T20:41:21.637Z,3
2018-07-09T20:41:38.084Z,3.1
2018-07-09T20:41:54.512Z,2.9
2018-07-09T20:42:10.940Z,3.4
2018-07-09T20:42:27.391Z,2.9
2018-07-09T20:42:43.818Z,2.5
2018-07-09T20:43:00.254Z,2.5
2018-07-09T20:43:16.689Z,2.5
2018-07-09T20:43:33.115Z,2.4
2018-07-09T20:43:49.561Z,2.9
2018-07-09T20:44:05.989Z,3.7
2018-07-09T20:44:22.426Z,3
2018-07-09T20:44:38.859Z,2.4
2018-07-09T20:44:55.291Z,3.2
2018-07-09T20:45:11.727Z,4.3
2018-07-09T20:45:28.158Z,4.8
2018-07-09T20:45:44.646Z,3.8
2018-07-09T20:46:01.015Z,2.8
2018-07-09T20:46:17.447Z,2.5
2018-07-09T20:46:33.902Z,2.7
2018-07-09T20:46:50.332Z,3.4
2018-07-09T20:47:06.765Z,3.4
2018-07-09T20:47:23.194Z,4.1
2018-07-09T20:47:39.627Z,4.1
2018-07-09T20:47:56.054Z,3.5
2018-07-09T20:48:12.492Z,3
2018-07-09T20:48:28.915Z,2.6
2018-07-09T20:48:45.349Z,2.9
2018-07-09T20:49:01.779Z,3.8
2018-07-09T20:49:18.205Z,4.5
2018-07-09T20:49:34.639Z,5
2018-07-09T20:49:51.072Z,4.1
2018-07-09T20:50:07.499Z,3.4
2018-07-09T20:50:23.930Z,3.2
2018-07-09T20:50:40.351Z,3
2018-07-09T20:50:56.779Z,2.6
2018-07-09T20:51:14.204Z,2.6
2018-07-09T20:51:30.670Z,3.8
2018-07-09T20:51:48.090Z,3.8
2018-07-09T20:52:04.518Z,3.3
2018-07-09T20:52:20.972Z,4.2